To NAV CANADA Home Page Login to a new session Search on AWWS site Feedback and Comments Disclaimer Vers la page française équivalente Tips FAQ What's new on the site To the Forecasts and Observations / NOTAM section To "File a Flight Plan" website Publications and other links Update of the User's profile FIC Telephone Numbers My Weather Data Folder Route Weather Data Regional Weather Data Local Weather Data To the Forecasts and Observations / NOTAM section
Request Generated 06/26/2017 at 22:34:28 UTC . Weather information available at that time is displayed.

METAR/TAF

GRANDE PRAIRIE/AB    

METAR CYQU 262200Z 06003KT 360V120 20SM -SHSN BKN050CB BKN120 22/07
A2965 RMK CB5AC2 OCNL LTGCG SE SLP043 DENSITY ALT 3800FT=
SPECI CYQU 262141Z 23007G30KT 160V280 20SM -SHRA SCT040CB BKN090
24/06 A2964 RMK CB3AC3 SLP040 DENSITY ALT 4100FT=
SPECI CYQU 262126Z VRB12G21KT 20SM -SHRA SCT040CB BKN090 24/05 A2965
RMK CB3AC3 SLP042 DENSITY ALT 4100FT=
METAR CYQU 262100Z 08005KT 25SM SCT040CB BKN120 26/07 A2964 RMK
CB4AC2 SLP037 DENSITY ALT 4400FT=
SPECI CYQU 262102Z VRB07KT 25SM SCT040CB BKN120 27/06 A2964 RMK
CB4AC2 CB S-SW SLP037 DENSITY ALT 4400FT=
METAR CYQU 262000Z VRB02KT 25SM SCT130 24/05 A2967 RMK AC4 SLP048
DENSITY ALT 4000FT=

TAF AMD CYQU 262052Z 2620/2707 27010KT P6SM FEW080 BKN120 TEMPO
2621/2624 VRB15G25KT P6SM TSRA BKN080CB
FM270000 27015KT P6SM SCT080 TEMPO 2700/2707 BKN080
RMK NXT FCST BY 270100Z=
Your time UTC time
Weather data provided by Environment Canada and NAV CANADA